Church Street, Georgia
Current Conditions -  °F | °C
As of 12:52 AM on Saturday 20 Dec 2014 (Local Time) from KATL Reporting Station
Light Rain Light Rain  
Wind Chill:   Ceiling: 7000
Heat Index:   Visibility: 10mi
Dew Point:   Wind: 6mph
Humidity: 79%   Direction: 350°N
Pressure: 30.14"   Gusts: NA
Location:  33.559°N, 84.4436°W
Report Text: KATL 200552Z 35005KT 10SM -RA BKN070 OVC090 06/02 A3014 RMK AO2 SLP208 P0002 60003 T00560022 10089 20056 58006
Loading
Personal Weather Stations






























Interactive Weather Map New forecast layout! Learn more

10-Day Weather Forecast

Advertisements
Track Severe Weather on mobile